Del Rio, Tennessee
Current Conditions -  °F | °C
As of 1:55 PM on Sunday 23 Nov 2014 (Local Time) from KMOR Reporting Station
Scattered Clouds Scattered Clouds  
Wind Chill: 12°   Ceiling: Unl
Heat Index: 12°   Visibility: 10mi
Dew Point: 10°   Wind: 18mph
Humidity: 88%   Direction: 100°E
Pressure: 29.82"   Gusts: NA
Location:  35.92°N, 83.03°W
Report Text: KMOR 231855Z AUTO 10016KT 10SM FEW034 SCT090 12/10 A2982 RMK
Loading
Personal Weather Stations






























Interactive Weather Map New forecast layout! Learn more

10-Day Weather Forecast

Advertisements
Track Severe Weather on mobile